Terminal Aerodrome Forecast
Issued by NWS

Home | Current Version | Previous Version | Text Only | Print | Product List | Glossary On
Versions: 1 2 3 4 5 6 7 8 9 10 11 12 13 14 15 16 17 18 19 20 21 22 23 24 25 26
000
FTUS45 KPSR 270839 AAA
TAFPHX
TAF AMD
KPHX 270839Z 2709/2806 09007KT P6SM FEW110 SCT150 BKN200
     FM271500 11015G25KT P6SM SCT100 BKN200
     FM272300 10006KT P6SM VCSH SCT080 BKN160=

USA.gov is the U.S. government's official web portal to all federal, state and local government web resources and services.